Time;durP1;ratioP1;P1;durP2;ratioP2;P2;SDS_P1;SDS_P2;PMS_P1;PMS_P2;Temp;Humidity;BMP_temperature;BMP_pressure;BME280_temperature;BME280_humidity;BME280_pressure;Samples;Min_cycle;Max_cycle;Signal;HPM_P1;HPM_P2
2021/05/16 00:00:15;;;;;;;;;;;11.60;84.10;;;;;;5109603;28;19908;-67
2021/05/16 00:02:42;;;;;;;;;;;11.70;86.00;;;;;;5071655;28;19909;-68
2021/05/16 00:05:09;;;;;;;;;;;11.80;85.20;;;;;;5073044;28;19916;-68
2021/05/16 00:07:36;;;;;;;;;;;11.80;84.20;;;;;;5073000;28;19908;-67
2021/05/16 00:10:04;;;;;;;;;;;11.80;84.60;;;;;;5072946;28;19916;-68
2021/05/16 00:12:32;;;;;;;;;;;11.90;84.30;;;;;;5105634;28;19912;-68
2021/05/16 00:15:00;;;;;;;;;;;11.90;83.60;;;;;;5106546;28;20343;-67
2021/05/16 00:17:28;;;;;;;;;;;12.00;83.10;;;;;;5074840;28;19930;-67
2021/05/16 00:19:54;;;;;;;;;;;12.10;82.90;;;;;;5075959;28;20375;-66
2021/05/16 00:22:21;;;;;;;;;;;12.20;82.70;;;;;;5074852;28;19909;-67
2021/05/16 00:24:48;;;;;;;;;;;12.20;81.90;;;;;;5072399;28;19913;-68
2021/05/16 00:27:14;;;;;;;;;;;12.30;83.00;;;;;;5073031;28;19962;-67
2021/05/16 00:29:46;;;;;;;;;;;12.40;82.90;;;;;;5073014;28;20204;-67
2021/05/16 00:32:12;;;;;;;;;;;12.50;82.40;;;;;;5073017;28;19909;-69
2021/05/16 00:34:40;;;;;;;;;;;12.50;82.90;;;;;;5072569;28;19909;-69
2021/05/16 00:37:07;;;;;;;;;;;12.60;82.90;;;;;;5073652;28;19924;-69
2021/05/16 00:39:34;;;;;;;;;;;12.60;81.60;;;;;;5073013;28;19908;-68
2021/05/16 00:42:01;;;;;;;;;;;12.60;81.70;;;;;;5073117;28;19976;-68
2021/05/16 00:44:28;;;;;;;;;;;12.60;81.60;;;;;;5073025;28;20005;-68
2021/05/16 00:46:56;;;;;;;;;;;12.70;83.20;;;;;;5072781;28;19916;-69
2021/05/16 00:49:22;;;;;;;;;;;12.80;82.30;;;;;;5072147;28;19915;-68
2021/05/16 00:51:49;;;;;;;;;;;12.90;82.30;;;;;;5073065;28;20434;-69
2021/05/16 00:54:16;;;;;;;;;;;13.00;82.30;;;;;;5072755;28;20309;-70
2021/05/16 00:56:42;;;;;;;;;;;13.10;81.90;;;;;;5073011;28;19963;-69
2021/05/16 00:59:09;;;;;;;;;;;13.10;80.70;;;;;;5072960;28;19908;-68
2021/05/16 01:01:36;;;;;;;;;;;13.30;80.70;;;;;;5072835;28;20369;-67
2021/05/16 01:04:03;;;;;;;;;;;13.60;80.70;;;;;;5104765;28;20011;-69
2021/05/16 01:06:29;;;;;;;;;;;13.90;79.20;;;;;;5072526;28;19916;-68
2021/05/16 01:09:00;;;;;;;;;;;14.20;78.70;;;;;;5072197;28;19908;-69
2021/05/16 01:11:31;;;;;;;;;;;14.30;78.30;;;;;;5072635;28;19951;-68
2021/05/16 01:13:57;;;;;;;;;;;14.60;77.50;;;;;;5072350;28;19912;-69
2021/05/16 01:16:24;;;;;;;;;;;14.80;76.30;;;;;;5072683;28;19908;-68
2021/05/16 01:18:51;;;;;;;;;;;14.60;77.40;;;;;;5071999;28;19919;-69
2021/05/16 01:21:18;;;;;;;;;;;14.70;78.10;;;;;;5072698;28;20399;-69
2021/05/16 01:23:49;;;;;;;;;;;14.70;77.90;;;;;;5071028;28;20014;-67
2021/05/16 01:26:15;;;;;;;;;;;14.60;76.80;;;;;;5072614;28;20343;-67
2021/05/16 01:28:43;;;;;;;;;;;14.50;77.40;;;;;;5072363;28;19916;-70
2021/05/16 01:31:12;;;;;;;;;;;14.30;78.30;;;;;;5073357;28;20367;-68
2021/05/16 01:33:38;;;;;;;;;;;14.20;78.20;;;;;;5076227;28;19915;-68
2021/05/16 01:36:05;;;;;;;;;;;14.20;77.90;;;;;;5076109;28;19912;-69
2021/05/16 01:38:32;;;;;;;;;;;14.20;77.90;;;;;;5076186;28;19916;-68
2021/05/16 01:41:00;;;;;;;;;;;14.20;78.50;;;;;;5074556;28;19915;-69
2021/05/16 01:43:26;;;;;;;;;;;14.10;77.10;;;;;;5075592;28;20401;-67
2021/05/16 01:45:54;;;;;;;;;;;14.20;77.90;;;;;;5075755;28;19916;-68
2021/05/16 01:48:20;;;;;;;;;;;14.20;78.40;;;;;;5107452;28;19919;-68
2021/05/16 01:50:48;;;;;;;;;;;14.10;78.70;;;;;;5076984;28;19908;-69
2021/05/16 01:53:15;;;;;;;;;;;14.10;78.20;;;;;;5118612;28;19923;-68
2021/05/16 01:55:42;;;;;;;;;;;14.10;78.20;;;;;;5092143;28;19909;-68
2021/05/16 01:58:09;;;;;;;;;;;14.10;77.90;;;;;;5094498;28;20252;-68
2021/05/16 02:00:37;;;;;;;;;;;14.10;78.60;;;;;;5078526;28;19915;-69
2021/05/16 02:03:05;;;;;;;;;;;14.10;78.20;;;;;;5075147;28;19909;-68
2021/05/16 02:05:32;;;;;;;;;;;14.10;79.00;;;;;;5075658;28;19921;-70
2021/05/16 02:07:59;;;;;;;;;;;14.10;78.70;;;;;;5073998;28;20268;-70
2021/05/16 02:10:27;;;;;;;;;;;14.10;79.20;;;;;;5074226;28;20071;-70
2021/05/16 02:12:54;;;;;;;;;;;14.10;79.90;;;;;;5073980;28;20271;-70
2021/05/16 02:15:21;;;;;;;;;;;14.20;79.80;;;;;;5075321;28;19915;-70
2021/05/16 02:17:50;;;;;;;;;;;14.20;78.30;;;;;;5074854;28;19908;-70
2021/05/16 02:20:18;;;;;;;;;;;14.20;78.00;;;;;;5075238;28;19912;-70
2021/05/16 02:22:45;;;;;;;;;;;14.20;79.00;;;;;;5107647;28;19985;-70
2021/05/16 02:25:12;;;;;;;;;;;14.30;78.40;;;;;;5074967;28;20026;-71
2021/05/16 02:27:39;;;;;;;;;;;14.30;78.80;;;;;;5075380;28;19948;-69
2021/05/16 02:30:08;;;;;;;;;;;14.40;79.00;;;;;;5075021;28;19915;-70
2021/05/16 02:32:36;;;;;;;;;;;14.40;78.80;;;;;;5074624;28;20378;-70
2021/05/16 02:35:03;;;;;;;;;;;14.40;77.70;;;;;;5074529;28;19909;-71
2021/05/16 02:37:29;;;;;;;;;;;14.40;78.20;;;;;;5075083;28;19909;-70
2021/05/16 02:39:56;;;;;;;;;;;14.40;76.80;;;;;;5074801;28;19962;-71
2021/05/16 02:42:25;;;;;;;;;;;14.30;77.30;;;;;;5074554;28;19919;-71
2021/05/16 02:44:52;;;;;;;;;;;14.30;77.90;;;;;;5074434;28;19923;-70
2021/05/16 02:47:19;;;;;;;;;;;14.50;76.80;;;;;;5074439;28;19963;-70
2021/05/16 02:49:45;;;;;;;;;;;14.50;76.20;;;;;;5073526;28;20426;-70
2021/05/16 02:52:12;;;;;;;;;;;14.60;75.20;;;;;;5074596;28;19909;-71
2021/05/16 02:54:39;;;;;;;;;;;14.60;74.80;;;;;;5074860;28;19963;-70
2021/05/16 02:57:06;;;;;;;;;;;14.60;75.60;;;;;;5074388;28;19943;-70
2021/05/16 02:59:32;;;;;;;;;;;14.50;75.80;;;;;;5075052;28;19951;-71
2021/05/16 03:01:59;;;;;;;;;;;14.40;74.80;;;;;;5074372;28;19955;-71
2021/05/16 03:04:26;;;;;;;;;;;14.50;75.40;;;;;;5074522;28;19915;-70
2021/05/16 03:06:53;;;;;;;;;;;14.50;75.20;;;;;;5074613;28;19916;-70
2021/05/16 03:09:19;;;;;;;;;;;14.60;75.40;;;;;;5074905;28;19908;-69
2021/05/16 03:11:46;;;;;;;;;;;14.50;75.40;;;;;;5075255;28;20247;-70
2021/05/16 03:14:14;;;;;;;;;;;14.50;75.00;;;;;;5075730;28;20355;-70
2021/05/16 03:16:41;;;;;;;;;;;14.60;75.90;;;;;;5075246;28;19908;-70
2021/05/16 03:19:07;;;;;;;;;;;14.80;74.10;;;;;;5075780;28;20013;-71
2021/05/16 03:21:34;;;;;;;;;;;15.10;71.80;;;;;;5076219;28;19919;-68
2021/05/16 03:24:01;;;;;;;;;;;15.00;73.40;;;;;;5077131;28;19912;-71
2021/05/16 03:26:29;;;;;;;;;;;15.00;73.40;;;;;;5080242;28;19923;-71
2021/05/16 03:28:56;;;;;;;;;;;15.00;72.20;;;;;;5084355;28;19939;-71
2021/05/16 03:31:23;;;;;;;;;;;15.00;73.00;;;;;;5080097;28;20347;-71
2021/05/16 03:33:49;;;;;;;;;;;15.00;72.30;;;;;;5078933;28;20003;-72
2021/05/16 03:36:16;;;;;;;;;;;15.00;73.70;;;;;;5073729;28;19908;-70
2021/05/16 03:38:43;;;;;;;;;;;15.10;69.30;;;;;;5073616;28;19908;-69
2021/05/16 03:41:09;;;;;;;;;;;15.10;68.90;;;;;;5073644;28;19909;-70
2021/05/16 03:43:39;;;;;;;;;;;15.10;69.80;;;;;;5073306;28;19921;-71
2021/05/16 03:46:05;;;;;;;;;;;15.10;70.50;;;;;;5072662;28;19927;-72
2021/05/16 03:48:32;;;;;;;;;;;15.10;71.00;;;;;;5073296;28;19909;-72
2021/05/16 03:50:59;;;;;;;;;;;15.00;70.70;;;;;;5073202;28;20017;-69
2021/05/16 03:53:25;;;;;;;;;;;15.30;71.90;;;;;;5073265;28;19908;-70
2021/05/16 03:55:52;;;;;;;;;;;15.40;71.10;;;;;;5073411;28;19908;-70
2021/05/16 03:58:19;;;;;;;;;;;15.40;67.90;;;;;;5073253;28;20007;-71
2021/05/16 04:00:45;;;;;;;;;;;15.40;70.00;;;;;;5072439;28;19959;-70
2021/05/16 04:03:15;;;;;;;;;;;15.40;68.40;;;;;;5073253;28;20347;-70
2021/05/16 04:05:42;;;;;;;;;;;15.30;67.50;;;;;;5073428;28;19917;-71
2021/05/16 04:08:08;;;;;;;;;;;15.30;68.00;;;;;;5073030;28;19916;-69
2021/05/16 04:10:35;;;;;;;;;;;15.30;67.20;;;;;;5073366;28;19912;-71
2021/05/16 04:13:02;;;;;;;;;;;15.20;67.90;;;;;;5073046;28;19923;-70
2021/05/16 04:15:28;;;;;;;;;;;15.20;68.50;;;;;;5073108;28;19916;-71
2021/05/16 04:17:58;;;;;;;;;;;15.20;66.70;;;;;;5073299;28;20399;-71
2021/05/16 04:20:25;;;;;;;;;;;15.20;65.40;;;;;;5072616;28;19913;-71
2021/05/16 04:22:51;;;;;;;;;;;15.20;63.60;;;;;;5072873;28;19909;-69
2021/05/16 04:25:18;;;;;;;;;;;15.20;64.20;;;;;;5073043;28;19917;-72
2021/05/16 04:27:45;;;;;;;;;;;15.20;64.20;;;;;;5073024;28;20064;-68
2021/05/16 04:30:12;;;;;;;;;;;15.20;63.10;;;;;;5073190;28;19954;-69
2021/05/16 04:32:38;;;;;;;;;;;15.20;62.50;;;;;;5072943;28;19912;-70
2021/05/16 04:35:05;;;;;;;;;;;15.30;60.50;;;;;;5072481;28;19920;-69
2021/05/16 04:37:32;;;;;;;;;;;15.30;61.40;;;;;;5072938;28;19944;-71
2021/05/16 04:39:59;;;;;;;;;;;15.20;62.50;;;;;;5073087;28;20426;-68
2021/05/16 04:42:25;;;;;;;;;;;15.00;64.20;;;;;;5072882;28;19927;-71
2021/05/16 04:44:52;;;;;;;;;;;15.00;65.00;;;;;;5072892;28;19909;-70
2021/05/16 04:47:19;;;;;;;;;;;15.10;64.10;;;;;;5072930;28;19943;-72
2021/05/16 04:49:45;;;;;;;;;;;15.20;67.00;;;;;;5072788;28;19920;-72
2021/05/16 04:52:13;;;;;;;;;;;15.20;64.00;;;;;;5072776;28;19908;-69
2021/05/16 04:54:39;;;;;;;;;;;15.10;64.90;;;;;;5072985;28;19966;-69
2021/05/16 04:57:06;;;;;;;;;;;15.10;66.20;;;;;;5072797;28;19908;-70
2021/05/16 04:59:33;;;;;;;;;;;15.10;64.70;;;;;;5073377;28;19916;-72
2021/05/16 05:01:59;;;;;;;;;;;15.10;63.20;;;;;;5083858;28;19909;-68
2021/05/16 05:04:26;;;;;;;;;;;15.10;59.90;;;;;;5085895;28;19938;-67
2021/05/16 05:06:56;;;;;;;;;;;15.20;61.90;;;;;;5091521;28;19916;-68
2021/05/16 05:09:22;;;;;;;;;;;15.20;59.70;;;;;;5076883;28;19909;-71
2021/05/16 05:11:49;;;;;;;;;;;15.10;59.10;;;;;;5076241;28;19917;-70
2021/05/16 05:14:15;;;;;;;;;;;15.10;59.60;;;;;;5108764;28;19996;-70
2021/05/16 05:16:42;;;;;;;;;;;15.20;59.70;;;;;;5076478;28;19985;-70
2021/05/16 05:19:09;;;;;;;;;;;15.20;57.90;;;;;;5077857;28;19991;-69
2021/05/16 05:21:35;;;;;;;;;;;15.30;60.10;;;;;;5091880;28;19961;-71
2021/05/16 05:24:02;;;;;;;;;;;15.10;58.90;;;;;;5096540;28;19908;-71
2021/05/16 05:26:29;;;;;;;;;;;15.10;58.10;;;;;;5096214;28;20015;-68
2021/05/16 05:28:58;;;;;;;;;;;15.00;58.60;;;;;;5096234;28;19947;-70
2021/05/16 05:31:25;;;;;;;;;;;14.90;59.00;;;;;;5096278;28;19912;-71
2021/05/16 05:33:51;;;;;;;;;;;15.10;60.10;;;;;;5096269;28;19994;-71
2021/05/16 05:36:18;;;;;;;;;;;15.30;60.20;;;;;;5096461;28;20328;-71
2021/05/16 05:38:45;;;;;;;;;;;15.20;60.40;;;;;;5095898;28;19999;-69
2021/05/16 05:41:13;;;;;;;;;;;15.10;60.30;;;;;;5096292;28;19908;-71
2021/05/16 05:43:41;;;;;;;;;;;15.10;60.50;;;;;;5095964;28;19927;-69
2021/05/16 05:46:07;;;;;;;;;;;15.10;62.70;;;;;;5128726;27;19943;-71
2021/05/16 05:48:34;;;;;;;;;;;15.20;63.50;;;;;;5095958;28;19958;-69
2021/05/16 05:51:01;;;;;;;;;;;15.40;64.00;;;;;;5095845;28;19908;-70
2021/05/16 05:53:29;;;;;;;;;;;15.40;64.20;;;;;;5095813;28;19908;-70
2021/05/16 05:55:56;;;;;;;;;;;15.20;64.00;;;;;;5096045;28;19995;-71
2021/05/16 05:58:24;;;;;;;;;;;15.20;65.20;;;;;;5096565;28;19908;-70
2021/05/16 06:00:51;;;;;;;;;;;15.10;64.40;;;;;;5095923;28;19908;-70
2021/05/16 06:03:19;;;;;;;;;;;15.10;65.40;;;;;;5096395;28;19912;-70
2021/05/16 06:05:46;;;;;;;;;;;15.00;65.00;;;;;;5099827;28;19940;-70
2021/05/16 06:08:12;;;;;;;;;;;15.00;65.60;;;;;;5102967;28;19908;-68
2021/05/16 06:10:39;;;;;;;;;;;15.20;64.80;;;;;;5102183;28;19908;-67
2021/05/16 06:13:06;;;;;;;;;;;15.10;67.20;;;;;;5101378;28;20108;-68
2021/05/16 06:15:32;;;;;;;;;;;15.10;66.00;;;;;;5095768;28;20007;-71
2021/05/16 06:18:01;;;;;;;;;;;15.00;66.80;;;;;;5094580;28;20377;-69
2021/05/16 06:20:28;;;;;;;;;;;14.90;68.60;;;;;;5095494;28;20374;-70
2021/05/16 06:22:55;;;;;;;;;;;15.00;66.60;;;;;;5095207;28;19912;-71
2021/05/16 06:25:22;;;;;;;;;;;15.00;69.00;;;;;;5095857;28;19916;-70
2021/05/16 06:27:49;;;;;;;;;;;14.80;67.40;;;;;;5095343;28;19912;-70
2021/05/16 06:30:16;;;;;;;;;;;14.70;67.20;;;;;;5095416;28;19913;-68
2021/05/16 06:32:43;;;;;;;;;;;14.70;66.90;;;;;;5095209;28;20334;-70
2021/05/16 06:35:13;;;;;;;;;;;14.60;67.20;;;;;;5095115;28;20003;-71
2021/05/16 06:37:39;;;;;;;;;;;14.60;68.20;;;;;;5095157;28;19908;-70
2021/05/16 06:40:06;;;;;;;;;;;14.50;68.20;;;;;;5095286;28;19916;-70
2021/05/16 06:42:33;;;;;;;;;;;14.40;67.70;;;;;;5094952;28;20002;-71
2021/05/16 06:45:00;;;;;;;;;;;14.40;69.00;;;;;;5094954;28;20030;-70
2021/05/16 06:47:31;;;;;;;;;;;14.40;68.30;;;;;;5094860;28;19912;-70
2021/05/16 06:49:57;;;;;;;;;;;14.30;68.70;;;;;;5095031;28;19995;-69
2021/05/16 06:52:24;;;;;;;;;;;14.20;68.60;;;;;;5094739;28;20389;-70
2021/05/16 06:54:51;;;;;;;;;;;14.20;69.20;;;;;;5094663;28;19961;-71
2021/05/16 06:57:18;;;;;;;;;;;14.10;69.30;;;;;;5093544;28;20337;-70
2021/05/16 06:59:47;;;;;;;;;;;14.20;69.50;;;;;;5094767;28;19985;-67
2021/05/16 07:02:14;;;;;;;;;;;14.20;69.80;;;;;;5094855;28;19916;-71
2021/05/16 07:04:43;;;;;;;;;;;14.20;70.80;;;;;;5094692;28;19908;-68
2021/05/16 07:07:13;;;;;;;;;;;14.20;70.70;;;;;;5094660;28;20016;-70
2021/05/16 07:09:42;;;;;;;;;;;14.00;71.00;;;;;;5094631;28;19908;-69
2021/05/16 07:12:10;;;;;;;;;;;13.90;71.30;;;;;;5093126;28;19919;-70
2021/05/16 07:14:37;;;;;;;;;;;13.80;71.80;;;;;;5094002;28;20389;-70
2021/05/16 07:17:03;;;;;;;;;;;13.70;72.90;;;;;;5094158;28;19916;-69
2021/05/16 07:19:30;;;;;;;;;;;13.60;74.00;;;;;;5094312;28;19915;-70
2021/05/16 07:21:59;;;;;;;;;;;13.60;75.20;;;;;;5094150;28;20351;-70
2021/05/16 07:24:26;;;;;;;;;;;13.50;75.10;;;;;;5094406;28;19943;-69
2021/05/16 07:26:56;;;;;;;;;;;13.40;74.90;;;;;;5126144;27;19922;-69
2021/05/16 07:29:22;;;;;;;;;;;13.40;77.60;;;;;;5094135;28;19908;-68
2021/05/16 07:31:50;;;;;;;;;;;13.40;76.80;;;;;;5094253;28;19915;-69
2021/05/16 07:34:17;;;;;;;;;;;13.30;75.80;;;;;;5127482;27;19913;-72
2021/05/16 07:36:44;;;;;;;;;;;13.20;75.30;;;;;;5097512;28;19950;-70
2021/05/16 07:39:11;;;;;;;;;;;13.20;75.80;;;;;;5107609;28;20386;-68
2021/05/16 07:41:39;;;;;;;;;;;13.20;77.10;;;;;;5110456;28;19908;-69
2021/05/16 07:44:06;;;;;;;;;;;13.20;77.10;;;;;;5137951;27;19931;-68
2021/05/16 07:46:32;;;;;;;;;;;13.20;76.00;;;;;;5074151;28;19924;-69
2021/05/16 07:48:59;;;;;;;;;;;13.10;76.20;;;;;;5073380;28;19909;-69
2021/05/16 07:51:26;;;;;;;;;;;13.20;76.20;;;;;;5073338;28;20021;-70
2021/05/16 07:53:56;;;;;;;;;;;13.20;76.60;;;;;;5106116;28;19908;-69
2021/05/16 07:56:23;;;;;;;;;;;13.20;76.60;;;;;;5073796;28;19908;-70
2021/05/16 07:58:50;;;;;;;;;;;13.20;77.90;;;;;;5072916;28;19909;-70
2021/05/16 08:01:17;;;;;;;;;;;13.30;77.10;;;;;;5073530;28;19908;-69
2021/05/16 08:03:46;;;;;;;;;;;13.30;78.10;;;;;;5073599;28;19909;-69
2021/05/16 08:06:13;;;;;;;;;;;13.40;79.00;;;;;;5073195;28;20363;-69
2021/05/16 08:08:41;;;;;;;;;;;13.50;77.60;;;;;;5105709;28;19920;-68
2021/05/16 08:11:07;;;;;;;;;;;13.60;75.90;;;;;;5072952;28;19967;-68
2021/05/16 08:13:34;;;;;;;;;;;13.70;76.40;;;;;;5072865;28;19968;-69
2021/05/16 08:16:01;;;;;;;;;;;13.80;76.00;;;;;;5073318;28;19909;-69
2021/05/16 08:18:28;;;;;;;;;;;13.90;75.00;;;;;;5073267;28;19908;-71
2021/05/16 08:20:54;;;;;;;;;;;13.90;73.80;;;;;;5105326;28;19919;-69
2021/05/16 08:23:21;;;;;;;;;;;14.00;73.90;;;;;;5073552;28;19909;-69
2021/05/16 08:25:51;;;;;;;;;;;14.00;75.10;;;;;;5073316;28;20430;-69
2021/05/16 08:28:19;;;;;;;;;;;13.90;73.80;;;;;;5072736;28;19909;-69
2021/05/16 08:30:46;;;;;;;;;;;13.90;74.60;;;;;;5072974;28;19948;-69
2021/05/16 08:33:12;;;;;;;;;;;13.80;73.50;;;;;;5077454;28;19923;-69
2021/05/16 08:35:39;;;;;;;;;;;13.80;73.00;;;;;;5092567;28;19920;-69
2021/05/16 08:38:06;;;;;;;;;;;13.70;72.40;;;;;;5092973;28;19982;-69
2021/05/16 08:40:35;;;;;;;;;;;13.80;71.80;;;;;;5093312;28;20267;-69
2021/05/16 08:43:05;;;;;;;;;;;13.80;71.40;;;;;;5096720;28;20281;-68
2021/05/16 08:45:32;;;;;;;;;;;14.00;71.20;;;;;;5097179;28;19916;-68
2021/05/16 08:48:00;;;;;;;;;;;13.90;74.40;;;;;;5097423;28;19918;-69
2021/05/16 08:50:27;;;;;;;;;;;13.80;75.50;;;;;;5096985;28;20011;-69
2021/05/16 08:52:54;;;;;;;;;;;13.70;77.60;;;;;;5079960;28;20381;-68
2021/05/16 08:55:21;;;;;;;;;;;13.60;78.50;;;;;;5077149;28;20003;-68
2021/05/16 08:57:48;;;;;;;;;;;13.50;78.20;;;;;;5075529;28;19947;-68
2021/05/16 09:00:22;;;;;;;;;;;13.40;77.70;;;;;;5076857;28;19935;-69
2021/05/16 09:02:58;;;;;;;;;;;13.40;77.50;;;;;;5076483;28;20286;-68
2021/05/16 09:05:26;;;;;;;;;;;13.40;77.40;;;;;;5076359;28;19919;-68
2021/05/16 09:08:00;;;;;;;;;;;13.30;77.70;;;;;;5079922;28;19908;-68
2021/05/16 09:10:27;;;;;;;;;;;13.30;77.80;;;;;;5089710;28;19908;-66
2021/05/16 09:13:06;;;;;;;;;;;13.30;80.10;;;;;;5090921;28;19904;-68
2021/05/16 09:15:33;;;;;;;;;;;13.20;79.20;;;;;;5065206;28;19908;-70
2021/05/16 09:17:59;;;;;;;;;;;13.20;77.00;;;;;;5076467;28;19972;-69
2021/05/16 09:20:26;;;;;;;;;;;13.20;77.40;;;;;;5076571;28;19908;-69
2021/05/16 09:22:53;;;;;;;;;;;13.10;77.50;;;;;;5076119;28;19933;-68
2021/05/16 09:25:29;;;;;;;;;;;13.10;77.50;;;;;;5076262;28;19962;-71
2021/05/16 09:28:09;;;;;;;;;;;13.00;77.70;;;;;;5075870;28;20465;-69
2021/05/16 09:30:36;;;;;;;;;;;13.00;77.50;;;;;;5076263;28;20378;-68
2021/05/16 09:33:03;;;;;;;;;;;13.00;79.70;;;;;;5076326;28;19927;-71
2021/05/16 09:35:32;;;;;;;;;;;12.90;78.20;;;;;;5076014;28;19915;-69
2021/05/16 09:38:03;;;;;;;;;;;12.80;78.50;;;;;;5076006;28;19995;-69
2021/05/16 09:40:37;;;;;;;;;;;12.80;79.90;;;;;;5076050;28;19908;-68
2021/05/16 09:43:17;;;;;;;;;;;12.90;76.90;;;;;;5084168;28;19920;-68
2021/05/16 09:45:48;;;;;;;;;;;12.90;77.20;;;;;;5096262;28;19973;-71
2021/05/16 09:48:28;;;;;;;;;;;12.90;76.40;;;;;;5096491;28;19908;-70
2021/05/16 09:51:15;;;;;;;;;;;12.80;76.40;;;;;;5095499;28;19908;-67
2021/05/16 09:54:00;;;;;;;;;;;12.80;77.30;;;;;;5095997;28;19979;-69
2021/05/16 09:56:53;;;;;;;;;;;12.80;76.00;;;;;;5095925;28;20519;-69
2021/05/16 09:59:20;;;;;;;;;;;12.80;77.50;;;;;;5094522;28;19908;-70
2021/05/16 10:01:47;;;;;;;;;;;12.80;77.90;;;;;;5095834;28;20377;-69
2021/05/16 10:04:17;;;;;;;;;;;12.70;76.00;;;;;;5095668;28;20365;-67
2021/05/16 10:06:46;;;;;;;;;;;12.70;77.00;;;;;;5095340;28;20274;-67
2021/05/16 10:09:13;;;;;;;;;;;12.70;77.90;;;;;;5095708;28;19912;-70
2021/05/16 10:11:40;;;;;;;;;;;12.60;77.20;;;;;;5095699;28;19987;-69
2021/05/16 10:14:10;;;;;;;;;;;12.60;76.90;;;;;;5094974;28;19908;-70
2021/05/16 10:16:49;;;;;;;;;;;12.50;77.80;;;;;;5095354;28;19915;-70
2021/05/16 10:19:18;;;;;;;;;;;12.50;77.50;;;;;;5095282;28;20018;-69
2021/05/16 10:21:45;;;;;;;;;;;12.50;78.00;;;;;;5095132;28;19943;-67
2021/05/16 10:24:12;;;;;;;;;;;12.40;77.80;;;;;;5095120;28;19908;-70
2021/05/16 10:26:39;;;;;;;;;;;12.40;78.90;;;;;;5095000;28;20005;-68
2021/05/16 10:29:07;;;;;;;;;;;12.30;78.70;;;;;;5094804;28;20007;-68
2021/05/16 10:31:43;;;;;;;;;;;12.40;79.10;;;;;;5095307;28;19995;-70
2021/05/16 10:34:27;;;;;;;;;;;12.30;79.20;;;;;;5095168;28;19961;-68
2021/05/16 10:37:01;;;;;;;;;;;12.40;79.40;;;;;;5094850;28;19958;-67
2021/05/16 10:39:37;;;;;;;;;;;12.40;81.50;;;;;;5104019;28;19915;-67
2021/05/16 10:42:22;;;;;;;;;;;12.40;80.30;;;;;;5105701;28;19940;-67
2021/05/16 10:44:59;;;;;;;;;;;12.40;78.80;;;;;;5104967;28;19962;-68
2021/05/16 10:47:41;;;;;;;;;;;12.30;79.90;;;;;;5094730;28;20401;-68
2021/05/16 10:50:12;;;;;;;;;;;12.30;80.20;;;;;;5094675;28;19954;-68
2021/05/16 10:52:40;;;;;;;;;;;12.30;79.70;;;;;;5094689;28;20350;-69
2021/05/16 10:55:08;;;;;;;;;;;12.30;80.70;;;;;;5127409;27;20011;-69
2021/05/16 10:57:39;;;;;;;;;;;12.30;81.50;;;;;;5094067;28;20223;-67
2021/05/16 11:00:25;;;;;;;;;;;12.30;79.80;;;;;;5095137;28;19908;-69
2021/05/16 11:03:05;;;;;;;;;;;12.30;80.90;;;;;;5094450;28;20442;-68
2021/05/16 11:05:48;;;;;;;;;;;12.20;80.00;;;;;;5094043;28;19954;-68
2021/05/16 11:08:14;;;;;;;;;;;12.10;80.20;;;;;;5094827;28;19912;-66
2021/05/16 11:10:41;;;;;;;;;;;12.10;80.70;;;;;;5094619;28;19955;-67
2021/05/16 11:13:15;;;;;;;;;;;12.10;80.90;;;;;;5125984;27;19912;-70
2021/05/16 11:15:49;;;;;;;;;;;12.00;80.90;;;;;;5094391;28;19962;-67
2021/05/16 11:18:19;;;;;;;;;;;12.00;81.10;;;;;;5094135;28;19996;-68
2021/05/16 11:20:55;;;;;;;;;;;11.90;81.70;;;;;;5094293;28;20011;-65
2021/05/16 11:23:31;;;;;;;;;;;11.90;82.70;;;;;;5094361;28;19969;-70
2021/05/16 11:26:20;;;;;;;;;;;11.90;82.50;;;;;;5094051;28;19916;-67
2021/05/16 11:28:50;;;;;;;;;;;11.80;82.00;;;;;;5093910;28;19915;-67
2021/05/16 11:31:20;;;;;;;;;;;11.80;81.90;;;;;;5093886;28;19938;-66
2021/05/16 11:33:53;;;;;;;;;;;11.80;82.00;;;;;;5093766;28;19915;-66
2021/05/16 11:36:24;;;;;;;;;;;11.80;82.20;;;;;;5126188;27;19912;-67
2021/05/16 11:38:54;;;;;;;;;;;11.70;82.20;;;;;;5093726;28;19915;-69
2021/05/16 11:41:25;;;;;;;;;;;11.80;83.10;;;;;;5093338;28;19908;-70
2021/05/16 11:43:51;;;;;;;;;;;11.70;82.10;;;;;;5093569;28;20406;-70
2021/05/16 11:46:25;;;;;;;;;;;11.70;82.40;;;;;;5093689;28;19916;-67
2021/05/16 11:48:55;;;;;;;;;;;11.70;82.90;;;;;;5093694;28;20421;-69
2021/05/16 11:51:23;;;;;;;;;;;11.70;83.60;;;;;;5093192;28;19940;-70
2021/05/16 11:53:57;;;;;;;;;;;11.70;83.90;;;;;;5093702;28;19908;-70
2021/05/16 11:56:27;;;;;;;;;;;11.70;83.80;;;;;;5094027;28;19915;-68
2021/05/16 11:58:55;;;;;;;;;;;11.80;82.70;;;;;;5093487;28;19908;-68
2021/05/16 12:01:23;;;;;;;;;;;11.70;82.60;;;;;;5093679;28;19915;-68
2021/05/16 12:03:53;;;;;;;;;;;11.60;83.00;;;;;;5094811;28;19908;-68
2021/05/16 12:06:20;;;;;;;;;;;11.50;84.60;;;;;;5096503;28;19916;-68
2021/05/16 12:09:01;;;;;;;;;;;11.50;84.10;;;;;;5103885;28;19957;-67
2021/05/16 12:11:29;;;;;;;;;;;11.50;84.10;;;;;;5105110;28;19934;-69
2021/05/16 12:14:05;;;;;;;;;;;11.50;84.80;;;;;;5103296;28;20255;-70
2021/05/16 12:16:31;;;;;;;;;;;11.50;83.60;;;;;;5092693;28;19915;-70
2021/05/16 12:18:58;;;;;;;;;;;11.50;84.00;;;;;;5093337;28;19908;-69
2021/05/16 12:21:25;;;;;;;;;;;11.50;83.70;;;;;;5093140;28;20325;-68
2021/05/16 12:23:54;;;;;;;;;;;11.50;84.10;;;;;;5093345;28;19908;-70
2021/05/16 12:26:21;;;;;;;;;;;11.40;85.10;;;;;;5093115;28;19984;-69
2021/05/16 12:28:49;;;;;;;;;;;11.40;85.00;;;;;;5092955;28;19909;-70
2021/05/16 12:31:19;;;;;;;;;;;11.40;83.80;;;;;;5093114;28;19940;-73
2021/05/16 12:33:47;;;;;;;;;;;11.40;83.50;;;;;;5093215;28;19966;-70
2021/05/16 12:36:14;;;;;;;;;;;11.30;83.90;;;;;;5093021;28;20012;-71
2021/05/16 12:38:48;;;;;;;;;;;11.30;82.80;;;;;;5093189;28;19912;-71
2021/05/16 12:41:19;;;;;;;;;;;11.30;83.70;;;;;;5093247;28;19908;-68
2021/05/16 12:44:05;;;;;;;;;;;11.30;82.90;;;;;;5092901;28;20286;-68
2021/05/16 12:46:39;;;;;;;;;;;11.20;82.30;;;;;;5092812;28;20371;-71
2021/05/16 12:49:06;;;;;;;;;;;11.20;83.40;;;;;;5092931;28;20294;-69
2021/05/16 12:51:33;;;;;;;;;;;11.30;81.80;;;;;;5092919;28;19995;-71
2021/05/16 12:54:16;;;;;;;;;;;11.20;80.80;;;;;;5093088;28;19923;-70
2021/05/16 12:56:46;;;;;;;;;;;11.30;82.10;;;;;;5092808;28;19908;-69
2021/05/16 12:59:23;;;;;;;;;;;11.30;81.50;;;;;;5092964;28;19908;-70
2021/05/16 13:01:51;;;;;;;;;;;11.30;80.50;;;;;;5093103;28;19915;-70
2021/05/16 13:04:20;;;;;;;;;;;11.30;80.30;;;;;;5125333;28;20029;-70
2021/05/16 13:06:54;;;;;;;;;;;11.20;80.20;;;;;;5092517;28;19916;-70
2021/05/16 13:09:27;;;;;;;;;;;11.30;81.60;;;;;;5092957;28;19998;-68
2021/05/16 13:12:00;;;;;;;;;;;11.20;80.80;;;;;;5093015;28;19908;-70
2021/05/16 13:14:39;;;;;;;;;;;11.20;80.70;;;;;;5092931;28;19923;-70
2021/05/16 13:17:15;;;;;;;;;;;11.10;80.90;;;;;;5092706;28;19915;-70
2021/05/16 13:19:48;;;;;;;;;;;11.10;81.70;;;;;;5092670;28;20300;-70
2021/05/16 13:22:33;;;;;;;;;;;11.10;81.20;;;;;;5092951;28;19947;-71
2021/05/16 13:25:00;;;;;;;;;;;11.10;80.90;;;;;;5092453;28;20382;-71
2021/05/16 13:27:26;;;;;;;;;;;11.10;81.00;;;;;;5094028;28;19912;-71
2021/05/16 13:29:57;;;;;;;;;;;11.00;81.90;;;;;;5096387;28;19928;-71
2021/05/16 13:32:24;;;;;;;;;;;11.10;82.40;;;;;;5096513;28;19915;-68
2021/05/16 13:34:50;;;;;;;;;;;11.00;82.00;;;;;;5096253;28;20005;-71
2021/05/16 13:37:17;;;;;;;;;;;11.00;81.50;;;;;;5097081;28;19914;-70
2021/05/16 13:39:44;;;;;;;;;;;11.00;82.40;;;;;;5107418;28;19908;-68
2021/05/16 13:42:10;;;;;;;;;;;11.00;82.00;;;;;;5107239;27;20412;-68
2021/05/16 13:44:37;;;;;;;;;;;11.00;81.60;;;;;;5107024;27;19912;-70
2021/05/16 13:47:05;;;;;;;;;;;10.90;81.60;;;;;;5095856;28;19928;-69
2021/05/16 13:49:32;;;;;;;;;;;10.90;80.70;;;;;;5096001;28;20370;-69
2021/05/16 13:51:59;;;;;;;;;;;10.90;81.20;;;;;;5095967;28;20316;-69
2021/05/16 13:54:31;;;;;;;;;;;10.90;82.20;;;;;;5096141;28;20421;-69
2021/05/16 13:57:01;;;;;;;;;;;11.00;81.50;;;;;;5095855;28;19912;-70
2021/05/16 13:59:27;;;;;;;;;;;11.00;81.70;;;;;;5096002;28;19908;-69
2021/05/16 14:01:56;;;;;;;;;;;11.00;81.50;;;;;;5095920;28;19931;-69
2021/05/16 14:04:23;;;;;;;;;;;11.00;81.60;;;;;;5095791;28;19908;-68
2021/05/16 14:06:50;;;;;;;;;;;11.00;81.90;;;;;;5128297;27;20021;-71
2021/05/16 14:09:16;;;;;;;;;;;11.10;83.10;;;;;;5095785;28;19908;-70
2021/05/16 14:11:43;;;;;;;;;;;11.00;80.70;;;;;;5094498;28;20266;-69
2021/05/16 14:14:10;;;;;;;;;;;11.10;81.10;;;;;;5095591;28;19958;-69
2021/05/16 14:16:37;;;;;;;;;;;11.10;81.90;;;;;;5095853;28;19962;-70
2021/05/16 14:19:04;;;;;;;;;;;11.00;82.90;;;;;;5095275;28;19965;-69
2021/05/16 14:21:30;;;;;;;;;;;11.00;82.60;;;;;;5095685;28;19908;-68
2021/05/16 14:23:57;;;;;;;;;;;10.90;81.20;;;;;;5095360;28;19917;-69